sim
Sign-in with your pilot id or email,
or register
Callsign
Passwort

Schedule Details

Flight Number: OEO5778
Departure: Frankfurt Airport (EDDF) at 04:45
Arrival: Fuerteventura Airport (GCFV) at 09:40

Weather Information
Getting current METAR information for EDDF 211820Z 07007KT 020V100 CAVOK 22/08 Q1026 NOSIG
Getting current METAR information for GCFV 211830Z 01019KT CAVOK 26/18 Q1013

Schedule Frequency

Route Map